Aérodrome :
LOGIN :

S'inscrire | Disclaimer

   EN    FR    IT 

 










Légende :    VFR   VFR Marginal   IFR   IFR Intensif   IFR Très Intensif
Visi : 
Plafond : 
>= 8 km
>= 3000ft
5 à 8 km
1000 à 3000 ft
1500m à 5 km
500 à 1000 ft
800 à 1500m
200 à 500 ft
< 800m
< 200 ft
Symboles :   Orages  Brouillard  Fortes neiges  Fortes précipitations  Vent > 20 kt
SIGMETs :   Divers  Orages  Givrage  Turbulence  Onde Orograph.  Cendres Volcan.







- Altitude de l'aérodrome : 184 ft
- Code IATA : BRU


EBBR - Bruxelles

DERNIER METAR :
  • 290650Z 22007KT 9999 BKN010 BKN023 16/14 Q0996 NOSIG

METARs EXPIRÉS :
  • 290620Z 21006KT 180V250 9999 -DZ BKN008 15/14 Q0996 NOSIG
  • 290550Z 23005KT 7000 -RADZ SCT007 BKN012 15/14 Q0996 TEMPO 4500 -RADZ BR BKN009
  • 290520Z 21006KT 9999 SCT008 BKN012 15/14 Q0995 NOSIG
  • 290450Z 21006KT 7000 -DZ SCT008 BKN012 15/14 Q0995 NOSIG
  • 290420Z 23004KT 190V250 4000 -DZ SCT006 BKN015 15/14 Q0995 NOSIG

TAF TAF EBBR
Valide du 29 à 06h jusqu'au 30 à 12h UTC


290510Z 2906/3012 23009KT 9999 SCT008 BKN012
BECMG 2906/2907 SCT025
Pas de NOTAMs connus pour ce terrain.



MET'MAP, la Météo Aéronautique d'un coup d'oeil ! - Copyright ORBIFLY Décembre 2007 - Disclaimer

ORBIFLY MET'MAP TEAM :

Programmation & Développement : Alexandra Zaïnal
Conception & Développement : Baudouin d'Aumeries
Co-Programmation & Développement : Marc-Olivier Méhu
Soutien technique & logistique : Manuel Goepfert

Contact : metmap@orbifly.com




SOURCES & CREDITS :

   NOAA